createdAt,value
2022-10-25T00:00:31.909Z,1006.06
2022-10-25T00:01:30.416Z,1006.03
2022-10-25T00:02:31.473Z,1006.02
2022-10-25T00:03:30.225Z,1006.02
2022-10-25T00:04:30.914Z,1006.03
2022-10-25T00:05:30.907Z,1005.99
2022-10-25T00:06:30.911Z,1006.01
2022-10-25T00:07:30.909Z,1005.99
2022-10-25T00:08:31.042Z,1005.99
2022-10-25T00:09:30.162Z,1006.01
2022-10-25T00:10:31.908Z,1006.01
2022-10-25T00:11:31.910Z,1006.02
2022-10-25T00:12:30.967Z,1006.04
2022-10-25T00:13:32.414Z,1005.97
2022-10-25T00:14:30.116Z,1005.95
2022-10-25T00:15:30.161Z,1005.97
2022-10-25T00:16:31.909Z,1005.94
2022-10-25T00:17:32.531Z,1005.97
2022-10-25T00:18:31.002Z,1005.99
2022-10-25T00:19:30.997Z,1006.02
2022-10-25T00:20:31.912Z,1005.98
2022-10-25T00:21:32.413Z,1005.99
2022-10-25T00:22:30.042Z,1006.00
2022-10-25T00:23:30.051Z,1006.00
2022-10-25T00:24:31.523Z,1006.01
2022-10-25T00:25:30.034Z,1006.02
2022-10-25T00:26:30.857Z,1006.01
2022-10-25T00:27:30.036Z,1006.02
2022-10-25T00:28:30.024Z,1006.01
2022-10-25T00:29:30.931Z,1006.04
2022-10-25T00:30:30.915Z,1006.02
2022-10-25T00:31:29.965Z,1006.04
2022-10-25T00:32:30.417Z,1006.06
2022-10-25T00:33:30.591Z,1006.07
2022-10-25T00:34:29.879Z,1006.07
2022-10-25T00:35:30.920Z,1006.04
2022-10-25T00:36:30.916Z,1006.07
2022-10-25T00:37:30.511Z,1006.06
2022-10-25T00:38:29.933Z,1006.00
2022-10-25T00:39:31.928Z,1006.08
2022-10-25T00:40:29.857Z,1006.09
2022-10-25T00:41:30.884Z,1006.09
2022-10-25T00:42:29.833Z,1006.07
2022-10-25T00:43:30.565Z,1006.08
2022-10-25T00:44:29.846Z,1006.08
2022-10-25T00:45:29.854Z,1006.06
2022-10-25T00:46:29.795Z,1006.06
2022-10-25T00:47:30.468Z,1006.06
2022-10-25T00:48:29.785Z,1006.06
2022-10-25T00:49:29.778Z,1006.05
2022-10-25T00:50:30.500Z,1006.07
2022-10-25T00:51:29.789Z,1006.09
2022-10-25T00:52:29.705Z,1006.12
2022-10-25T00:53:30.422Z,1006.09
2022-10-25T00:54:30.424Z,1006.11
2022-10-25T00:55:31.422Z,1006.07
2022-10-25T00:56:30.521Z,1006.09
2022-10-25T00:57:29.727Z,1006.10
2022-10-25T00:58:30.554Z,1006.08
2022-10-25T00:59:29.637Z,1006.10
2022-10-25T01:00:29.643Z,1006.10
2022-10-25T01:01:29.785Z,1006.09
2022-10-25T01:02:31.606Z,1006.05
2022-10-25T01:03:30.482Z,1006.05
2022-10-25T01:04:31.423Z,1006.09
2022-10-25T01:05:30.436Z,1006.09
2022-10-25T01:06:31.430Z,1006.07
2022-10-25T01:07:29.609Z,1006.07
2022-10-25T01:08:29.532Z,1006.07
2022-10-25T01:09:29.516Z,1006.09
2022-10-25T01:10:29.483Z,1006.05
2022-10-25T01:11:30.349Z,1006.05
2022-10-25T01:12:30.950Z,1006.06
2022-10-25T01:13:29.459Z,1006.04
2022-10-25T01:14:30.425Z,1006.05
2022-10-25T01:15:30.560Z,1006.02
2022-10-25T01:16:30.435Z,1006.00
2022-10-25T01:17:29.522Z,1006.00
2022-10-25T01:18:29.399Z,1006.00
2022-10-25T01:19:29.976Z,1005.98
2022-10-25T01:20:30.435Z,1005.97
2022-10-25T01:21:29.373Z,1006.00
2022-10-25T01:22:29.398Z,1006.01
2022-10-25T01:23:29.928Z,1005.97
2022-10-25T01:24:29.334Z,1005.98
2022-10-25T01:25:30.929Z,1006.00
2022-10-25T01:26:30.928Z,1006.01
2022-10-25T01:27:29.311Z,1006.02
2022-10-25T01:28:29.288Z,1006.02
2022-10-25T01:29:29.265Z,1006.02
2022-10-25T01:30:29.933Z,1006.02
2022-10-25T01:31:29.931Z,1006.02
2022-10-25T01:32:29.286Z,1006.03
2022-10-25T01:33:29.293Z,1005.99
2022-10-25T01:34:29.930Z,1006.05
2022-10-25T01:35:29.936Z,1006.06
2022-10-25T01:36:29.947Z,1006.03
2022-10-25T01:37:29.938Z,1006.08
2022-10-25T01:38:29.222Z,1006.06
2022-10-25T01:39:29.185Z,1006.07
2022-10-25T01:40:30.937Z,1006.06
2022-10-25T01:41:29.161Z,1006.03
2022-10-25T01:42:30.942Z,1006.05
2022-10-25T01:43:29.113Z,1006.03
2022-10-25T01:44:31.014Z,1006.03
2022-10-25T01:45:29.122Z,1006.06
2022-10-25T01:46:29.074Z,1006.00
2022-10-25T01:47:29.114Z,1006.01
2022-10-25T01:48:30.033Z,1005.95
2022-10-25T01:49:29.935Z,1005.98
2022-10-25T01:50:29.074Z,1005.97
2022-10-25T01:51:29.033Z,1005.92
2022-10-25T01:52:29.011Z,1005.94
2022-10-25T01:53:29.017Z,1005.94
2022-10-25T01:54:28.994Z,1005.92
2022-10-25T01:55:29.031Z,1005.90
2022-10-25T01:56:30.436Z,1005.87
2022-10-25T01:57:29.044Z,1005.90
2022-10-25T01:58:29.940Z,1005.87
2022-10-25T01:59:30.474Z,1005.91
2022-10-25T02:00:30.526Z,1005.88
2022-10-25T02:01:29.190Z,1005.88
2022-10-25T02:02:29.462Z,1005.85
2022-10-25T02:03:29.940Z,1005.88
2022-10-25T02:04:29.532Z,1005.85
2022-10-25T02:05:28.919Z,1005.86
2022-10-25T02:06:28.849Z,1005.91
2022-10-25T02:07:29.523Z,1005.92
2022-10-25T02:08:28.865Z,1005.89
2022-10-25T02:09:28.846Z,1005.94
2022-10-25T02:10:28.855Z,1005.89
2022-10-25T02:11:28.831Z,1005.93
2022-10-25T02:12:28.837Z,1005.89
2022-10-25T02:13:28.793Z,1005.90
2022-10-25T02:14:29.443Z,1005.92
2022-10-25T02:15:29.444Z,1005.97
2022-10-25T02:16:30.444Z,1005.95
2022-10-25T02:17:29.445Z,1005.93
2022-10-25T02:19:28.766Z,1005.94
2022-10-25T02:20:29.443Z,1005.95
2022-10-25T02:21:29.446Z,1005.97
2022-10-25T02:22:28.725Z,1005.94
2022-10-25T02:23:29.444Z,1005.98
2022-10-25T02:24:28.714Z,1006.01
2022-10-25T02:25:29.572Z,1005.98
2022-10-25T02:26:28.726Z,1005.99
2022-10-25T02:27:28.664Z,1006.01
2022-10-25T02:28:28.639Z,1006.01
2022-10-25T02:29:29.361Z,1006.00
2022-10-25T02:30:30.447Z,1006.05
2022-10-25T02:31:29.540Z,1006.05
2022-10-25T02:32:28.646Z,1006.10
2022-10-25T02:33:28.629Z,1006.10
2022-10-25T02:34:29.454Z,1006.03
2022-10-25T02:35:29.533Z,1006.04
2022-10-25T02:36:29.046Z,1006.03
2022-10-25T02:37:28.561Z,1006.04
2022-10-25T02:38:28.530Z,1006.03
2022-10-25T02:39:31.386Z,1006.03
2022-10-25T02:40:29.984Z,1006.01
2022-10-25T02:41:28.599Z,1006.01
2022-10-25T02:42:28.528Z,1005.99
2022-10-25T02:44:28.975Z,1006.02
2022-10-25T02:45:28.446Z,1006.02
2022-10-25T02:46:28.456Z,1006.00
2022-10-25T02:47:29.452Z,1006.00
2022-10-25T02:48:28.397Z,1006.03
2022-10-25T02:49:28.950Z,1006.04
2022-10-25T02:50:28.407Z,1006.05
2022-10-25T02:51:29.032Z,1006.04
2022-10-25T02:52:28.390Z,1006.07
2022-10-25T02:53:29.453Z,1006.03
2022-10-25T02:54:29.009Z,1006.08
2022-10-25T02:55:30.483Z,1006.08
2022-10-25T02:56:28.345Z,1006.07
2022-10-25T02:57:28.301Z,1006.10
2022-10-25T02:58:28.954Z,1006.03
2022-10-25T02:59:29.082Z,1006.06
2022-10-25T03:00:29.518Z,1006.09
2022-10-25T03:01:29.683Z,1006.12
2022-10-25T03:02:28.254Z,1006.15
2022-10-25T03:03:29.053Z,1006.15
2022-10-25T03:04:28.956Z,1006.14
2022-10-25T03:05:29.974Z,1006.16
2022-10-25T03:06:28.219Z,1006.16
2022-10-25T03:07:28.966Z,1006.16
2022-10-25T03:09:28.172Z,1006.18
2022-10-25T03:10:28.191Z,1006.14
2022-10-25T03:11:28.955Z,1006.14
2022-10-25T03:12:28.156Z,1006.20
2022-10-25T03:13:29.480Z,1006.18
2022-10-25T03:14:28.098Z,1006.17
2022-10-25T03:15:29.033Z,1006.17
2022-10-25T03:16:31.461Z,1006.16
2022-10-25T03:17:28.087Z,1006.20
2022-10-25T03:18:28.185Z,1006.25
2022-10-25T03:19:28.099Z,1006.23
2022-10-25T03:20:29.459Z,1006.30
2022-10-25T03:21:29.024Z,1006.33
2022-10-25T03:22:28.034Z,1006.30
2022-10-25T03:23:28.068Z,1006.35
2022-10-25T03:24:28.062Z,1006.32
2022-10-25T03:25:29.082Z,1006.37
2022-10-25T03:26:28.971Z,1006.34
2022-10-25T03:27:28.037Z,1006.32
2022-10-25T03:28:29.463Z,1006.36
2022-10-25T03:29:28.472Z,1006.38
2022-10-25T03:30:29.462Z,1006.44
2022-10-25T03:31:27.908Z,1006.40
2022-10-25T03:32:28.463Z,1006.44
2022-10-25T03:33:28.468Z,1006.40
2022-10-25T03:34:29.464Z,1006.44
2022-10-25T03:35:27.897Z,1006.47
2022-10-25T03:36:27.842Z,1006.44
2022-10-25T03:37:28.560Z,1006.48
2022-10-25T03:38:28.465Z,1006.47
2022-10-25T03:39:27.849Z,1006.44
2022-10-25T03:40:28.478Z,1006.49
2022-10-25T03:41:28.968Z,1006.48
2022-10-25T03:42:28.468Z,1006.48
2022-10-25T03:43:28.568Z,1006.46
2022-10-25T03:44:28.467Z,1006.47
2022-10-25T03:45:29.498Z,1006.47
2022-10-25T03:46:28.469Z,1006.50
2022-10-25T03:47:28.482Z,1006.51
2022-10-25T03:48:28.478Z,1006.48
2022-10-25T03:49:27.748Z,1006.52
2022-10-25T03:50:27.755Z,1006.50
2022-10-25T03:51:27.741Z,1006.54
2022-10-25T03:52:27.697Z,1006.57
2022-10-25T03:53:28.472Z,1006.59
2022-10-25T03:54:29.261Z,1006.58
2022-10-25T03:55:29.472Z,1006.60
2022-10-25T03:56:29.468Z,1006.63
2022-10-25T03:57:28.492Z,1006.63
2022-10-25T03:58:27.691Z,1006.62
2022-10-25T03:59:29.471Z,1006.66
2022-10-25T04:00:27.682Z,1006.64
2022-10-25T04:01:27.775Z,1006.64
2022-10-25T04:02:27.608Z,1006.65
2022-10-25T04:03:27.627Z,1006.62
2022-10-25T04:04:28.496Z,1006.67
2022-10-25T04:05:27.551Z,1006.66
2022-10-25T04:06:28.071Z,1006.64
2022-10-25T04:07:27.551Z,1006.68
2022-10-25T04:08:27.560Z,1006.71
2022-10-25T04:09:29.093Z,1006.72
2022-10-25T04:10:27.575Z,1006.69
2022-10-25T04:11:28.474Z,1006.71
2022-10-25T04:12:27.495Z,1006.72
2022-10-25T04:13:28.102Z,1006.73
2022-10-25T04:14:27.499Z,1006.72
2022-10-25T04:15:28.108Z,1006.73
2022-10-25T04:16:27.506Z,1006.73
2022-10-25T04:17:27.460Z,1006.73
2022-10-25T04:18:27.976Z,1006.75
2022-10-25T04:19:27.983Z,1006.72
2022-10-25T04:20:28.976Z,1006.71
2022-10-25T04:21:27.975Z,1006.75
2022-10-25T04:22:27.523Z,1006.73
2022-10-25T04:23:28.081Z,1006.70
2022-10-25T04:24:27.372Z,1006.71
2022-10-25T04:25:28.092Z,1006.74
2022-10-25T04:26:27.378Z,1006.71
2022-10-25T04:27:27.299Z,1006.70
2022-10-25T04:28:27.979Z,1006.72
2022-10-25T04:29:29.482Z,1006.74
2022-10-25T04:30:27.284Z,1006.75
2022-10-25T04:31:27.979Z,1006.76
2022-10-25T04:32:27.312Z,1006.72
2022-10-25T04:33:27.980Z,1006.78
2022-10-25T04:34:28.054Z,1006.74
2022-10-25T04:35:28.566Z,1006.76
2022-10-25T04:36:29.481Z,1006.71
2022-10-25T04:37:27.181Z,1006.77
2022-10-25T04:38:28.071Z,1006.74
2022-10-25T04:39:28.982Z,1006.74
2022-10-25T04:40:27.987Z,1006.72
2022-10-25T04:41:27.169Z,1006.73
2022-10-25T04:42:28.981Z,1006.73
2022-10-25T04:43:27.985Z,1006.70
2022-10-25T04:44:28.983Z,1006.69
2022-10-25T04:45:27.164Z,1006.75
2022-10-25T04:46:27.107Z,1006.71
2022-10-25T04:47:27.114Z,1006.73
2022-10-25T04:48:27.089Z,1006.73
2022-10-25T04:49:27.623Z,1006.72
2022-10-25T04:50:28.983Z,1006.76
2022-10-25T04:51:27.105Z,1006.73
2022-10-25T04:52:27.561Z,1006.73
2022-10-25T04:53:27.974Z,1006.76
2022-10-25T04:54:27.044Z,1006.76
2022-10-25T04:55:27.169Z,1006.72
2022-10-25T04:56:27.585Z,1006.72
2022-10-25T04:57:26.985Z,1006.78
2022-10-25T04:58:31.202Z,1006.78
2022-10-25T04:59:27.590Z,1006.79
2022-10-25T05:00:27.613Z,1006.77
2022-10-25T05:01:27.057Z,1006.77
2022-10-25T05:02:26.984Z,1006.75
2022-10-25T05:03:27.528Z,1006.71
2022-10-25T05:04:27.623Z,1006.82
2022-10-25T05:05:26.930Z,1006.79
2022-10-25T05:06:26.860Z,1006.74
2022-10-25T05:07:27.581Z,1006.82
2022-10-25T05:08:26.849Z,1006.80
2022-10-25T05:09:27.571Z,1006.78
2022-10-25T05:10:27.491Z,1006.78
2022-10-25T05:11:26.936Z,1006.76
2022-10-25T05:12:27.385Z,1006.75
2022-10-25T05:13:26.778Z,1006.80
2022-10-25T05:14:27.604Z,1006.83
2022-10-25T05:15:26.792Z,1006.83
2022-10-25T05:16:27.617Z,1006.83
2022-10-25T05:17:27.507Z,1006.84
2022-10-25T05:18:27.515Z,1006.82
2022-10-25T05:19:27.528Z,1006.81
2022-10-25T05:20:27.629Z,1006.82
2022-10-25T05:22:28.500Z,1006.87
2022-10-25T05:23:26.742Z,1006.88
2022-10-25T05:24:29.001Z,1006.82
2022-10-25T05:25:27.493Z,1006.84
2022-10-25T05:26:26.685Z,1006.79
2022-10-25T05:27:26.667Z,1006.81
2022-10-25T05:28:26.666Z,1006.87
2022-10-25T05:29:26.600Z,1006.88
2022-10-25T05:30:26.659Z,1006.87
2022-10-25T05:31:29.000Z,1006.83
2022-10-25T05:32:28.496Z,1006.85
2022-10-25T05:33:27.497Z,1006.91
2022-10-25T05:34:26.610Z,1006.94
2022-10-25T05:35:27.495Z,1006.97
2022-10-25T05:36:26.523Z,1006.99
2022-10-25T05:37:26.551Z,1006.97
2022-10-25T05:38:26.528Z,1006.99
2022-10-25T05:39:27.009Z,1006.99
2022-10-25T05:40:27.498Z,1007.01
2022-10-25T05:41:26.998Z,1007.01
2022-10-25T05:42:26.463Z,1007.07
2022-10-25T05:43:27.003Z,1007.05
2022-10-25T05:44:26.472Z,1007.05
2022-10-25T05:45:28.499Z,1007.07
2022-10-25T05:46:26.488Z,1007.09
2022-10-25T05:47:26.999Z,1007.08
2022-10-25T05:48:28.998Z,1007.11
2022-10-25T05:49:27.012Z,1007.14
2022-10-25T05:50:27.019Z,1007.10
2022-10-25T05:51:35.225Z,1007.11
2022-10-25T05:52:26.387Z,1007.10
2022-10-25T05:53:26.431Z,1007.13
2022-10-25T05:54:27.000Z,1007.15
2022-10-25T05:55:26.330Z,1007.18
2022-10-25T05:56:27.027Z,1007.18
2022-10-25T05:57:27.002Z,1007.18
2022-10-25T05:58:28.003Z,1007.21
2022-10-25T05:59:26.324Z,1007.25
2022-10-25T06:00:27.070Z,1007.22
2022-10-25T06:01:27.109Z,1007.21
2022-10-25T06:02:28.008Z,1007.29
2022-10-25T06:03:26.285Z,1007.30
2022-10-25T06:04:27.004Z,1007.27
2022-10-25T06:05:27.006Z,1007.30
2022-10-25T06:06:26.289Z,1007.37
2022-10-25T06:07:26.927Z,1007.33
2022-10-25T06:08:27.061Z,1007.33
2022-10-25T06:09:27.594Z,1007.34
2022-10-25T06:10:28.550Z,1007.35
2022-10-25T06:11:27.006Z,1007.37
2022-10-25T06:12:26.150Z,1007.39
2022-10-25T06:13:28.008Z,1007.41
2022-10-25T06:14:27.008Z,1007.42
2022-10-25T06:15:26.082Z,1007.44
2022-10-25T06:16:27.602Z,1007.48
2022-10-25T06:17:26.062Z,1007.47
2022-10-25T06:18:27.507Z,1007.49
2022-10-25T06:19:27.509Z,1007.47
2022-10-25T06:20:27.032Z,1007.45
2022-10-25T06:21:26.093Z,1007.49
2022-10-25T06:22:26.626Z,1007.49
2022-10-25T06:23:26.011Z,1007.56
2022-10-25T06:24:26.608Z,1007.52
2022-10-25T06:25:26.016Z,1007.56
2022-10-25T06:26:26.028Z,1007.54
2022-10-25T06:27:26.679Z,1007.55
2022-10-25T06:28:27.509Z,1007.54
2022-10-25T06:29:27.556Z,1007.53
2022-10-25T06:30:27.482Z,1007.59
2022-10-25T06:31:27.014Z,1007.58
2022-10-25T06:32:25.959Z,1007.55
2022-10-25T06:33:28.258Z,1007.60
2022-10-25T06:34:25.881Z,1007.62
2022-10-25T06:35:25.888Z,1007.61
2022-10-25T06:36:26.518Z,1007.69
2022-10-25T06:37:26.537Z,1007.63
2022-10-25T06:38:25.902Z,1007.62
2022-10-25T06:39:26.512Z,1007.64
2022-10-25T06:40:25.909Z,1007.63
2022-10-25T06:41:25.901Z,1007.65
2022-10-25T06:42:25.831Z,1007.67
2022-10-25T06:43:26.608Z,1007.64
2022-10-25T06:44:25.850Z,1007.63
2022-10-25T06:45:25.827Z,1007.69
2022-10-25T06:46:25.864Z,1007.70
2022-10-25T06:47:25.785Z,1007.71
2022-10-25T06:48:27.518Z,1007.73
2022-10-25T06:49:26.545Z,1007.76
2022-10-25T06:50:26.559Z,1007.75
2022-10-25T06:51:25.741Z,1007.78
2022-10-25T06:52:25.775Z,1007.81
2022-10-25T06:53:27.521Z,1007.82
2022-10-25T06:54:25.692Z,1007.81
2022-10-25T06:55:25.664Z,1007.83
2022-10-25T06:56:25.679Z,1007.86
2022-10-25T06:57:26.554Z,1007.88
2022-10-25T06:58:26.632Z,1007.86
2022-10-25T06:59:25.645Z,1007.87
2022-10-25T07:00:26.209Z,1007.89
2022-10-25T07:01:25.806Z,1007.93
2022-10-25T07:02:27.152Z,1007.90
2022-10-25T07:03:26.087Z,1007.92
2022-10-25T07:04:25.599Z,1007.97
2022-10-25T07:05:26.521Z,1007.95
2022-10-25T07:06:25.645Z,1007.92
2022-10-25T07:07:25.566Z,1007.99
2022-10-25T07:08:27.030Z,1007.99
2022-10-25T07:09:25.582Z,1008.03
2022-10-25T07:10:26.122Z,1008.03
2022-10-25T07:11:26.021Z,1008.05
2022-10-25T07:12:26.623Z,1008.08
2022-10-25T07:13:27.030Z,1008.10
2022-10-25T07:14:26.100Z,1008.05
2022-10-25T07:15:26.025Z,1008.04
2022-10-25T07:16:26.024Z,1008.07
2022-10-25T07:17:25.429Z,1008.04
2022-10-25T07:18:25.439Z,1008.05
2022-10-25T07:19:26.037Z,1008.07
2022-10-25T07:20:27.024Z,1008.08
2022-10-25T07:21:26.066Z,1008.07
2022-10-25T07:22:25.367Z,1008.10
2022-10-25T07:23:26.131Z,1008.05
2022-10-25T07:24:26.106Z,1008.01
2022-10-25T07:25:27.024Z,1008.07
2022-10-25T07:26:27.527Z,1008.08
2022-10-25T07:27:26.630Z,1008.08
2022-10-25T07:28:25.296Z,1008.10
2022-10-25T07:29:26.027Z,1008.16
2022-10-25T07:30:26.026Z,1008.15
2022-10-25T07:31:26.027Z,1008.13
2022-10-25T07:32:25.222Z,1008.18
2022-10-25T07:33:26.129Z,1008.15
2022-10-25T07:34:26.667Z,1008.16
2022-10-25T07:35:25.201Z,1008.19
2022-10-25T07:36:26.130Z,1008.17
2022-10-25T07:37:25.161Z,1008.22
2022-10-25T07:38:27.731Z,1008.18
2022-10-25T07:39:26.047Z,1008.24
2022-10-25T07:40:27.029Z,1008.27
2022-10-25T07:41:26.558Z,1008.22
2022-10-25T07:42:26.029Z,1008.24
2022-10-25T07:43:26.033Z,1008.26
2022-10-25T07:44:25.641Z,1008.25
2022-10-25T07:45:26.454Z,1008.29
2022-10-25T07:46:25.078Z,1008.25
2022-10-25T07:47:26.032Z,1008.25
2022-10-25T07:48:27.039Z,1008.19
2022-10-25T07:49:25.648Z,1008.22
2022-10-25T07:50:26.031Z,1008.28
2022-10-25T07:51:25.642Z,1008.26
2022-10-25T07:52:25.233Z,1008.22
2022-10-25T07:53:25.697Z,1008.27
2022-10-25T07:54:25.050Z,1008.31
2022-10-25T07:55:25.560Z,1008.28
2022-10-25T07:56:25.537Z,1008.24
2022-10-25T07:57:26.538Z,1008.24
2022-10-25T07:58:25.538Z,1008.23
2022-10-25T07:59:25.640Z,1008.24
2022-10-25T08:00:24.933Z,1008.21
2022-10-25T08:01:25.703Z,1008.26
2022-10-25T08:02:26.287Z,1008.27
2022-10-25T08:03:26.077Z,1008.22
2022-10-25T08:04:25.561Z,1008.25
2022-10-25T08:05:25.540Z,1008.28
2022-10-25T08:06:25.543Z,1008.27
2022-10-25T08:07:24.926Z,1008.30
2022-10-25T08:08:24.945Z,1008.26
2022-10-25T08:09:37.780Z,1008.26
2022-10-25T08:10:24.856Z,1008.24
2022-10-25T08:11:25.542Z,1008.30
2022-10-25T08:12:24.912Z,1008.31
2022-10-25T08:13:25.560Z,1008.28
2022-10-25T08:14:24.895Z,1008.30
2022-10-25T08:15:25.541Z,1008.26
2022-10-25T08:16:26.541Z,1008.27
2022-10-25T08:17:26.543Z,1008.29
2022-10-25T08:18:26.040Z,1008.29
2022-10-25T08:19:24.811Z,1008.28
2022-10-25T08:20:37.598Z,1008.34
2022-10-25T08:21:25.539Z,1008.32
2022-10-25T08:22:24.743Z,1008.33
2022-10-25T08:23:25.654Z,1008.37
2022-10-25T08:24:25.557Z,1008.33
2022-10-25T08:25:26.214Z,1008.36
2022-10-25T08:26:25.469Z,1008.36
2022-10-25T08:27:26.043Z,1008.35
2022-10-25T08:28:25.544Z,1008.32
2022-10-25T08:29:24.666Z,1008.36
2022-10-25T08:30:25.545Z,1008.36
2022-10-25T08:31:24.683Z,1008.32
2022-10-25T08:32:25.544Z,1008.37
2022-10-25T08:33:25.246Z,1008.36
2022-10-25T08:34:27.434Z,1008.36
2022-10-25T08:35:24.574Z,1008.35
2022-10-25T08:36:24.607Z,1008.34
2022-10-25T08:37:24.581Z,1008.37
2022-10-25T08:38:24.521Z,1008.39
2022-10-25T08:39:24.498Z,1008.38
2022-10-25T08:40:26.544Z,1008.39
2022-10-25T08:41:24.489Z,1008.38
2022-10-25T08:42:24.574Z,1008.41
2022-10-25T08:43:25.061Z,1008.41
2022-10-25T08:44:26.050Z,1008.49
2022-10-25T08:45:25.054Z,1008.45
2022-10-25T08:46:24.394Z,1008.45
2022-10-25T08:47:24.451Z,1008.47
2022-10-25T08:48:25.052Z,1008.43
2022-10-25T08:49:25.132Z,1008.42
2022-10-25T08:50:24.347Z,1008.48
2022-10-25T08:51:24.376Z,1008.48
2022-10-25T08:52:25.051Z,1008.45
2022-10-25T08:53:26.559Z,1008.50
2022-10-25T08:54:25.134Z,1008.49
2022-10-25T08:55:26.059Z,1008.54
2022-10-25T08:56:25.129Z,1008.49
2022-10-25T08:57:26.049Z,1008.52
2022-10-25T08:58:24.307Z,1008.53
2022-10-25T08:59:25.054Z,1008.49
2022-10-25T09:00:26.066Z,1008.49
2022-10-25T09:01:25.193Z,1008.53
2022-10-25T09:02:25.289Z,1008.50
2022-10-25T09:03:24.265Z,1008.53
2022-10-25T09:04:24.265Z,1008.51
2022-10-25T09:05:25.054Z,1008.52
2022-10-25T09:06:26.073Z,1008.55
2022-10-25T09:07:25.075Z,1008.56
2022-10-25T09:08:26.053Z,1008.54
2022-10-25T09:09:25.142Z,1008.55
2022-10-25T09:10:26.060Z,1008.52
2022-10-25T09:11:26.057Z,1008.56
2022-10-25T09:12:24.155Z,1008.60
2022-10-25T09:13:24.246Z,1008.59
2022-10-25T09:14:25.104Z,1008.62
2022-10-25T09:15:24.206Z,1008.60
2022-10-25T09:16:25.557Z,1008.66
2022-10-25T09:17:24.101Z,1008.59
2022-10-25T09:18:25.057Z,1008.63
2022-10-25T09:19:24.061Z,1008.63
2022-10-25T09:20:24.938Z,1008.56
2022-10-25T09:21:24.558Z,1008.61
2022-10-25T09:22:25.561Z,1008.61
2022-10-25T09:23:24.069Z,1008.62
2022-10-25T09:24:24.575Z,1008.57
2022-10-25T09:25:24.686Z,1008.60
2022-10-25T09:26:26.558Z,1008.62
2022-10-25T09:27:23.981Z,1008.64
2022-10-25T09:28:25.728Z,1008.63
2022-10-25T09:29:23.999Z,1008.66
2022-10-25T09:30:23.982Z,1008.69
2022-10-25T09:31:24.568Z,1008.70
2022-10-25T09:32:24.566Z,1008.70
2022-10-25T09:33:24.660Z,1008.68
2022-10-25T09:34:23.931Z,1008.70
2022-10-25T09:35:23.939Z,1008.73
2022-10-25T09:36:24.452Z,1008.70
2022-10-25T09:37:23.918Z,1008.74
2022-10-25T09:38:25.564Z,1008.73
2022-10-25T09:39:24.563Z,1008.75
2022-10-25T09:40:23.873Z,1008.71
2022-10-25T09:41:26.061Z,1008.74
2022-10-25T09:42:24.562Z,1008.75
2022-10-25T09:43:23.884Z,1008.75
2022-10-25T09:44:25.583Z,1008.72
2022-10-25T09:45:24.569Z,1008.75
2022-10-25T09:46:24.566Z,1008.76
2022-10-25T09:47:24.564Z,1008.76
2022-10-25T09:48:24.636Z,1008.78
2022-10-25T09:49:24.566Z,1008.77
2022-10-25T09:50:23.726Z,1008.76
2022-10-25T09:51:24.568Z,1008.79
2022-10-25T09:52:27.566Z,1008.77
2022-10-25T09:53:24.305Z,1008.79
2022-10-25T09:54:23.837Z,1008.82
2022-10-25T09:55:23.759Z,1008.87
2022-10-25T09:56:23.645Z,1008.82
2022-10-25T09:57:24.571Z,1008.87
2022-10-25T09:58:25.567Z,1008.88
2022-10-25T09:59:25.102Z,1008.87
2022-10-25T10:00:25.070Z,1008.89
2022-10-25T10:01:23.835Z,1008.96
2022-10-25T10:02:24.768Z,1008.93
2022-10-25T10:03:23.693Z,1008.92
2022-10-25T10:04:25.069Z,1008.92
2022-10-25T10:05:23.584Z,1008.95
2022-10-25T10:06:23.586Z,1008.93
2022-10-25T10:07:24.173Z,1008.97
2022-10-25T10:08:25.074Z,1008.96
2022-10-25T10:09:23.551Z,1008.95
2022-10-25T10:10:24.660Z,1008.97
2022-10-25T10:11:23.562Z,1008.97
2022-10-25T10:12:23.550Z,1009.00
2022-10-25T10:13:23.451Z,1009.03
2022-10-25T10:14:23.478Z,1009.04
2022-10-25T10:15:24.074Z,1009.09
2022-10-25T10:16:24.075Z,1009.04
2022-10-25T10:17:23.489Z,1009.07
2022-10-25T10:18:23.439Z,1009.02
2022-10-25T10:19:23.393Z,1009.09
2022-10-25T10:20:24.206Z,1009.05
2022-10-25T10:21:24.082Z,1009.09
2022-10-25T10:22:25.097Z,1009.08
2022-10-25T10:23:23.422Z,1009.03
2022-10-25T10:24:23.379Z,1009.05
2022-10-25T10:25:23.420Z,1009.07
2022-10-25T10:26:23.350Z,1009.10
2022-10-25T10:27:24.681Z,1009.15
2022-10-25T10:28:23.354Z,1009.08
2022-10-25T10:29:23.338Z,1009.10
2022-10-25T10:30:25.582Z,1009.11
2022-10-25T10:31:23.273Z,1009.09
2022-10-25T10:32:25.077Z,1009.09
2022-10-25T10:33:24.078Z,1009.09
2022-10-25T10:34:23.290Z,1009.12
2022-10-25T10:35:23.295Z,1009.11
2022-10-25T10:36:24.080Z,1009.13
2022-10-25T10:37:23.210Z,1009.10
2022-10-25T10:38:24.088Z,1009.09
2022-10-25T10:39:24.094Z,1009.06
2022-10-25T10:40:24.079Z,1009.14
2022-10-25T10:41:25.080Z,1009.07
2022-10-25T10:42:23.204Z,1009.08
2022-10-25T10:43:24.083Z,1009.10
2022-10-25T10:44:23.166Z,1009.14
2022-10-25T10:45:23.180Z,1009.10
2022-10-25T10:46:24.584Z,1009.14
2022-10-25T10:47:24.621Z,1009.17
2022-10-25T10:48:23.717Z,1009.13
2022-10-25T10:49:23.081Z,1009.12
2022-10-25T10:50:23.097Z,1009.12
2022-10-25T10:51:43.069Z,1009.16
2022-10-25T10:52:25.087Z,1009.19
2022-10-25T10:53:23.596Z,1009.21
2022-10-25T10:54:24.202Z,1009.12
2022-10-25T10:55:23.584Z,1009.14
2022-10-25T10:56:24.586Z,1009.16
2022-10-25T10:57:24.588Z,1009.12
2022-10-25T10:58:24.086Z,1009.15
2022-10-25T10:59:24.588Z,1009.15
2022-10-25T11:00:25.091Z,1009.09
2022-10-25T11:01:23.698Z,1009.15
2022-10-25T11:02:23.325Z,1009.12
2022-10-25T11:03:23.684Z,1009.15
2022-10-25T11:04:25.354Z,1009.14
2022-10-25T11:05:22.876Z,1009.17
2022-10-25T11:06:23.595Z,1009.08
2022-10-25T11:07:23.672Z,1009.10
2022-10-25T11:08:22.896Z,1009.09
2022-10-25T11:09:24.590Z,1009.14
2022-10-25T11:10:23.713Z,1009.17
2022-10-25T11:11:23.671Z,1009.12
2022-10-25T11:12:23.589Z,1009.08
2022-10-25T11:13:24.237Z,1009.11
2022-10-25T11:14:24.593Z,1009.06
2022-10-25T11:15:24.618Z,1009.10
2022-10-25T11:16:25.743Z,1009.09
2022-10-25T11:17:23.592Z,1009.11
2022-10-25T11:18:22.846Z,1009.14
2022-10-25T11:19:24.591Z,1009.21
2022-10-25T11:20:22.760Z,1009.13
2022-10-25T11:21:24.093Z,1009.15
2022-10-25T11:22:24.005Z,1009.14
2022-10-25T11:23:23.604Z,1009.15
2022-10-25T11:24:22.783Z,1009.19
2022-10-25T11:25:23.597Z,1009.21
2022-10-25T11:26:24.094Z,1009.18
2022-10-25T11:27:22.698Z,1009.18
2022-10-25T11:28:23.221Z,1009.18
2022-10-25T11:29:22.723Z,1009.17
2022-10-25T11:30:22.722Z,1009.18
2022-10-25T11:31:24.102Z,1009.16
2022-10-25T11:32:22.622Z,1009.08
2022-10-25T11:33:22.634Z,1009.10
2022-10-25T11:34:22.647Z,1009.16
2022-10-25T11:35:22.604Z,1009.12
2022-10-25T11:36:23.098Z,1009.09
2022-10-25T11:37:22.560Z,1009.17
2022-10-25T11:38:23.098Z,1009.06
2022-10-25T11:39:22.507Z,1009.03
2022-10-25T11:40:22.584Z,1009.05
2022-10-25T11:41:24.126Z,1009.05
2022-10-25T11:43:23.101Z,1009.06
2022-10-25T11:44:23.137Z,1009.07
2022-10-25T11:45:24.098Z,1009.12
2022-10-25T11:46:23.601Z,1009.15
2022-10-25T11:47:22.523Z,1009.09
2022-10-25T11:48:24.104Z,1009.12
2022-10-25T11:49:22.462Z,1009.12
2022-10-25T11:50:23.115Z,1009.11
2022-10-25T11:51:22.715Z,1009.17
2022-10-25T11:52:22.396Z,1009.15
2022-10-25T11:53:23.104Z,1009.16
2022-10-25T11:54:22.365Z,1009.14
2022-10-25T11:55:23.121Z,1009.24
2022-10-25T11:56:22.350Z,1009.16
2022-10-25T11:57:22.359Z,1009.18
2022-10-25T11:58:23.116Z,1009.18
2022-10-25T11:59:23.103Z,1009.21
2022-10-25T12:00:23.251Z,1009.29
2022-10-25T12:01:23.285Z,1009.27
2022-10-25T12:02:22.312Z,1009.32
2022-10-25T12:03:22.263Z,1009.25
2022-10-25T12:04:28.435Z,1009.35
2022-10-25T12:05:23.222Z,1009.27
2022-10-25T12:06:22.281Z,1009.35
2022-10-25T12:07:22.260Z,1009.31
2022-10-25T12:08:22.222Z,1009.42
2022-10-25T12:09:24.110Z,1009.44
2022-10-25T12:10:24.154Z,1009.37